Time;durP1;ratioP1;P1;durP2;ratioP2;P2;SDS_P1;SDS_P2;PMS_P1;PMS_P2;Temp;Humidity;BMP_temperature;BMP_pressure;BME280_temperature;BME280_humidity;BME280_pressure;Samples;Min_cycle;Max_cycle;Signal;HPM_P1;HPM_P2
2023/01/06 00:01:16;;;;;;;;;;;10.70;99.90;;;;;;5053497;28;20000;-57
2023/01/06 00:03:42;;;;;;;;;;;10.80;99.90;;;;;;5053429;28;19921;-58
2023/01/06 00:06:09;;;;;;;;;;;10.80;99.90;;;;;;5053360;28;20333;-57
2023/01/06 00:08:35;;;;;;;;;;;10.80;99.90;;;;;;5052859;28;19909;-55
2023/01/06 00:11:04;;;;;;;;;;;10.90;99.90;;;;;;5053320;28;19920;-56
2023/01/06 00:13:30;;;;;;;;;;;10.90;99.90;;;;;;5053109;28;19913;-56
2023/01/06 00:15:55;;;;;;;;;;;10.90;99.90;;;;;;5053122;28;20475;-58
2023/01/06 00:18:21;;;;;;;;;;;10.90;99.90;;;;;;5052849;28;19908;-57
2023/01/06 00:20:46;;;;;;;;;;;10.90;99.90;;;;;;5052812;28;20339;-57
2023/01/06 00:23:12;;;;;;;;;;;10.90;99.90;;;;;;5052981;28;19915;-58
2023/01/06 00:25:38;;;;;;;;;;;10.80;99.90;;;;;;5052963;28;19955;-56
2023/01/06 00:28:03;;;;;;;;;;;10.80;99.90;;;;;;5052970;28;20426;-58
2023/01/06 00:30:29;;;;;;;;;;;10.80;99.90;;;;;;5051406;28;19908;-56
2023/01/06 00:32:54;;;;;;;;;;;10.90;99.90;;;;;;5051395;28;19913;-57
2023/01/06 00:35:20;;;;;;;;;;;10.90;99.90;;;;;;5052825;28;19908;-57
2023/01/06 00:37:45;;;;;;;;;;;10.90;99.90;;;;;;5052580;28;20380;-56
2023/01/06 00:40:11;;;;;;;;;;;10.90;99.90;;;;;;5051333;28;19908;-58
2023/01/06 00:42:37;;;;;;;;;;;10.90;99.90;;;;;;5052695;28;19913;-58
2023/01/06 00:45:03;;;;;;;;;;;10.90;99.90;;;;;;5051337;28;19912;-58
2023/01/06 00:47:28;;;;;;;;;;;10.90;99.90;;;;;;5052372;28;19915;-58
2023/01/06 00:49:54;;;;;;;;;;;10.80;99.90;;;;;;5050889;28;19917;-57
2023/01/06 00:52:19;;;;;;;;;;;10.80;99.90;;;;;;5052563;28;20015;-58
2023/01/06 00:54:45;;;;;;;;;;;10.80;99.90;;;;;;5052500;28;19912;-58
2023/01/06 00:57:10;;;;;;;;;;;10.80;99.90;;;;;;5052317;28;19908;-58
2023/01/06 00:59:36;;;;;;;;;;;10.80;99.90;;;;;;5052026;28;19913;-57
2023/01/06 01:02:02;;;;;;;;;;;10.80;99.90;;;;;;5050927;28;19909;-57
2023/01/06 01:04:28;;;;;;;;;;;10.70;99.90;;;;;;5052134;28;19912;-56
2023/01/06 01:06:53;;;;;;;;;;;10.70;99.90;;;;;;5051966;28;19962;-57
2023/01/06 01:09:21;;;;;;;;;;;10.70;99.90;;;;;;5051854;28;19915;-58
2023/01/06 01:14:32;;;;;;;;;;;10.70;99.90;;;;;;5052131;28;20003;-56
2023/01/06 01:16:57;;;;;;;;;;;10.60;99.90;;;;;;5052040;28;19960;-57
2023/01/06 01:19:24;;;;;;;;;;;10.70;99.90;;;;;;5051721;28;19926;-58
2023/01/06 01:21:49;;;;;;;;;;;10.70;99.90;;;;;;5050584;28;19958;-54
2023/01/06 01:24:16;;;;;;;;;;;10.70;99.90;;;;;;5050711;28;19940;-57
2023/01/06 01:26:42;;;;;;;;;;;10.60;99.90;;;;;;5050431;28;19955;-58
2023/01/06 01:29:09;;;;;;;;;;;10.60;99.90;;;;;;5050225;28;19920;-58
2023/01/06 01:31:35;;;;;;;;;;;10.60;99.90;;;;;;5051574;28;19940;-58
2023/01/06 01:34:00;;;;;;;;;;;10.60;99.90;;;;;;5051634;28;19948;-58
2023/01/06 01:36:26;;;;;;;;;;;10.60;99.90;;;;;;5051425;28;19909;-58
2023/01/06 01:38:54;;;;;;;;;;;10.60;99.90;;;;;;5051477;28;19963;-57
2023/01/06 01:41:20;;;;;;;;;;;10.60;99.90;;;;;;5051642;28;19959;-58
2023/01/06 01:43:47;;;;;;;;;;;10.60;99.90;;;;;;5051545;28;19909;-58
2023/01/06 01:46:16;;;;;;;;;;;10.60;99.90;;;;;;5051624;28;19971;-57
2023/01/06 01:48:42;;;;;;;;;;;10.60;99.90;;;;;;5051377;28;19909;-56
2023/01/06 01:51:10;;;;;;;;;;;10.60;99.90;;;;;;5049843;28;20423;-58
2023/01/06 01:53:56;;;;;;;;;;;10.60;99.90;;;;;;5050098;28;20411;-58
2023/01/06 01:56:23;;;;;;;;;;;10.70;99.90;;;;;;5050012;28;19912;-56
2023/01/06 01:59:25;;;;;;;;;;;10.60;99.90;;;;;;5049781;28;19916;-58
2023/01/06 02:01:50;;;;;;;;;;;10.60;99.90;;;;;;4970354;28;19917;-58
2023/01/06 02:04:17;;;;;;;;;;;10.60;99.90;;;;;;5034512;28;20321;-57
2023/01/06 02:06:44;;;;;;;;;;;10.60;99.90;;;;;;5049879;28;20393;-56
2023/01/06 02:09:10;;;;;;;;;;;10.60;99.90;;;;;;5049720;28;19957;-58
2023/01/06 02:11:39;;;;;;;;;;;10.60;99.90;;;;;;5051171;28;20312;-57
2023/01/06 02:14:15;;;;;;;;;;;10.60;99.90;;;;;;5049978;28;19909;-58
2023/01/06 02:16:59;;;;;;;;;;;10.60;99.90;;;;;;5051133;28;19909;-57
2023/01/06 02:19:28;;;;;;;;;;;10.50;99.90;;;;;;5049592;28;20393;-58
2023/01/06 02:21:57;;;;;;;;;;;10.60;99.90;;;;;;5049872;28;19909;-57
2023/01/06 02:24:29;;;;;;;;;;;10.60;99.90;;;;;;5051156;28;19909;-56
2023/01/06 02:27:13;;;;;;;;;;;10.60;99.90;;;;;;5049909;28;19966;-57
2023/01/06 02:29:39;;;;;;;;;;;10.60;99.90;;;;;;5049473;28;19948;-58
2023/01/06 02:32:08;;;;;;;;;;;10.50;99.90;;;;;;5049930;28;19913;-56
2023/01/06 02:34:52;;;;;;;;;;;10.60;99.90;;;;;;5049783;28;19909;-58
2023/01/06 02:37:19;;;;;;;;;;;10.60;99.90;;;;;;5049434;28;19944;-56
2023/01/06 02:39:55;;;;;;;;;;;10.60;99.90;;;;;;5049410;28;20388;-57
2023/01/06 02:42:27;;;;;;;;;;;10.60;99.90;;;;;;5049678;28;19913;-56
2023/01/06 02:44:53;;;;;;;;;;;10.60;99.90;;;;;;5049605;28;19909;-57
2023/01/06 02:47:26;;;;;;;;;;;10.60;99.90;;;;;;5049535;28;20328;-56
2023/01/06 02:49:55;;;;;;;;;;;10.60;99.90;;;;;;5049303;28;19917;-57
2023/01/06 02:52:21;;;;;;;;;;;10.60;99.90;;;;;;5049512;28;19913;-57
2023/01/06 02:54:54;;;;;;;;;;;10.60;99.90;;;;;;5049465;28;19924;-57
2023/01/06 02:57:24;;;;;;;;;;;10.60;99.90;;;;;;5049351;28;20007;-57
2023/01/06 03:00:16;;;;;;;;;;;10.60;99.90;;;;;;5060507;23;19928;-60
2023/01/06 03:02:44;;;;;;;;;;;10.70;99.90;;;;;;5045334;28;19915;-60
2023/01/06 03:05:11;;;;;;;;;;;10.70;99.90;;;;;;5053228;28;19913;-61
2023/01/06 03:07:38;;;;;;;;;;;10.70;99.90;;;;;;5053945;28;19908;-61
2023/01/06 03:10:05;;;;;;;;;;;10.60;99.90;;;;;;5053399;28;19908;-61
2023/01/06 03:12:35;;;;;;;;;;;10.70;99.90;;;;;;5053669;28;19920;-61
2023/01/06 03:15:01;;;;;;;;;;;10.70;99.90;;;;;;5053652;28;20309;-61
2023/01/06 03:17:27;;;;;;;;;;;10.60;99.90;;;;;;5053541;28;20003;-61
2023/01/06 03:19:53;;;;;;;;;;;10.60;99.90;;;;;;5053190;28;20011;-61
2023/01/06 03:22:18;;;;;;;;;;;10.60;99.90;;;;;;5053425;28;19962;-61
2023/01/06 03:24:44;;;;;;;;;;;10.70;99.90;;;;;;5054229;28;19909;-61
2023/01/06 03:27:10;;;;;;;;;;;10.60;99.90;;;;;;5054310;28;19950;-61
2023/01/06 03:29:38;;;;;;;;;;;10.50;99.90;;;;;;5052727;28;19909;-61
2023/01/06 03:32:26;;;;;;;;;;;10.50;99.90;;;;;;5053081;28;19913;-62
2023/01/06 03:34:55;;;;;;;;;;;10.50;99.90;;;;;;5054242;28;19908;-61
2023/01/06 03:37:36;;;;;;;;;;;10.50;99.90;;;;;;5052905;28;19913;-62
2023/01/06 03:40:09;;;;;;;;;;;10.50;99.90;;;;;;5054030;28;19909;-61
2023/01/06 03:45:40;;;;;;;;;;;10.60;99.90;;;;;;5052795;28;19912;-61
2023/01/06 03:48:17;;;;;;;;;;;10.60;99.90;;;;;;5052454;28;19947;-61
2023/01/06 03:50:48;;;;;;;;;;;10.70;99.90;;;;;;5052326;28;19909;-61
2023/01/06 03:53:27;;;;;;;;;;;10.60;99.90;;;;;;5053760;28;20284;-61
2023/01/06 03:56:11;;;;;;;;;;;10.60;99.90;;;;;;5053847;28;19908;-61
2023/01/06 03:58:39;;;;;;;;;;;10.60;99.90;;;;;;5051832;28;19909;-61
2023/01/06 04:01:09;;;;;;;;;;;10.60;99.90;;;;;;5052265;28;19913;-61
2023/01/06 04:03:34;;;;;;;;;;;10.50;99.90;;;;;;5054129;28;19909;-61
2023/01/06 04:06:01;;;;;;;;;;;10.60;99.90;;;;;;5052658;28;19908;-61
2023/01/06 04:08:27;;;;;;;;;;;10.60;99.90;;;;;;5053739;28;19913;-62
2023/01/06 04:10:53;;;;;;;;;;;10.60;99.90;;;;;;5053597;28;20206;-62
2023/01/06 04:13:20;;;;;;;;;;;10.60;99.90;;;;;;5052097;28;20396;-62
2023/01/06 04:15:46;;;;;;;;;;;10.60;99.90;;;;;;5052224;28;20002;-62
2023/01/06 04:18:13;;;;;;;;;;;10.60;99.90;;;;;;5052186;28;20320;-62
2023/01/06 04:20:40;;;;;;;;;;;10.70;99.90;;;;;;5051998;28;20010;-62
2023/01/06 04:23:14;;;;;;;;;;;10.70;99.90;;;;;;5052395;28;19908;-60
2023/01/06 04:25:40;;;;;;;;;;;10.70;99.90;;;;;;5052495;28;20426;-60
2023/01/06 04:28:13;;;;;;;;;;;10.80;99.90;;;;;;5052236;28;19999;-60
2023/01/06 04:30:39;;;;;;;;;;;10.70;99.90;;;;;;5052519;28;20258;-61
2023/01/06 04:33:05;;;;;;;;;;;10.70;99.90;;;;;;5051810;28;19913;-60
2023/01/06 04:35:30;;;;;;;;;;;10.60;99.90;;;;;;5053271;28;20403;-60
2023/01/06 04:38:00;;;;;;;;;;;10.60;99.90;;;;;;5051745;28;20332;-60
2023/01/06 04:40:25;;;;;;;;;;;10.60;99.90;;;;;;5052604;28;19916;-60
2023/01/06 04:43:03;;;;;;;;;;;10.60;99.90;;;;;;5052589;28;19958;-61
2023/01/06 04:45:29;;;;;;;;;;;10.60;99.90;;;;;;5052604;28;19954;-61
2023/01/06 04:47:54;;;;;;;;;;;10.70;99.90;;;;;;5052383;28;19952;-61
2023/01/06 04:50:20;;;;;;;;;;;10.70;99.90;;;;;;5052219;28;20276;-61
2023/01/06 04:52:45;;;;;;;;;;;10.70;99.90;;;;;;5052584;28;19959;-62
2023/01/06 04:55:11;;;;;;;;;;;10.70;99.90;;;;;;5052494;28;19917;-61
2023/01/06 04:57:37;;;;;;;;;;;10.70;99.90;;;;;;5052154;28;19920;-61
2023/01/06 05:00:03;;;;;;;;;;;10.70;99.90;;;;;;5052009;28;19974;-61
2023/01/06 05:02:28;;;;;;;;;;;10.80;99.90;;;;;;5052365;28;19924;-61
2023/01/06 05:04:54;;;;;;;;;;;10.80;99.90;;;;;;5052280;28;19909;-61
2023/01/06 05:07:20;;;;;;;;;;;10.80;99.90;;;;;;5052032;28;19966;-61
2023/01/06 05:09:45;;;;;;;;;;;10.70;99.90;;;;;;5051946;28;19970;-61
2023/01/06 05:12:11;;;;;;;;;;;10.70;99.90;;;;;;5052000;28;19924;-61
2023/01/06 05:14:36;;;;;;;;;;;10.70;99.90;;;;;;5052059;28;19962;-60
2023/01/06 05:17:02;;;;;;;;;;;10.80;99.90;;;;;;5052090;28;19944;-61
2023/01/06 05:19:27;;;;;;;;;;;10.70;99.90;;;;;;5051735;28;19951;-60
2023/01/06 05:21:53;;;;;;;;;;;10.70;99.90;;;;;;5052003;28;19936;-60
2023/01/06 05:24:19;;;;;;;;;;;10.80;99.90;;;;;;5051915;28;19999;-60
2023/01/06 05:26:44;;;;;;;;;;;10.70;99.90;;;;;;5051032;28;19965;-61
2023/01/06 05:29:15;;;;;;;;;;;10.70;99.90;;;;;;5051522;28;20287;-60
2023/01/06 05:31:41;;;;;;;;;;;10.80;99.90;;;;;;5051692;28;19936;-61
2023/01/06 05:34:06;;;;;;;;;;;10.80;99.90;;;;;;5051776;28;20365;-60
2023/01/06 05:36:32;;;;;;;;;;;10.80;99.90;;;;;;5051304;28;19915;-60
2023/01/06 05:38:58;;;;;;;;;;;10.80;99.90;;;;;;5051007;28;19909;-61
2023/01/06 05:41:23;;;;;;;;;;;10.80;99.90;;;;;;5051211;28;19960;-61
2023/01/06 05:43:49;;;;;;;;;;;10.90;99.90;;;;;;5051459;28;19978;-61
2023/01/06 05:46:14;;;;;;;;;;;10.90;99.90;;;;;;5051221;28;19909;-61
2023/01/06 05:48:40;;;;;;;;;;;10.90;99.90;;;;;;5050865;28;20479;-61
2023/01/06 05:51:10;;;;;;;;;;;10.90;99.90;;;;;;5051229;28;19904;-60
2023/01/06 05:53:37;;;;;;;;;;;10.90;99.90;;;;;;5051183;28;19912;-60
2023/01/06 05:56:04;;;;;;;;;;;10.90;99.90;;;;;;5051214;28;19924;-61
2023/01/06 05:58:32;;;;;;;;;;;10.90;99.90;;;;;;5050694;28;20338;-61
2023/01/06 06:00:58;;;;;;;;;;;10.80;99.90;;;;;;5051094;28;19913;-61
2023/01/06 06:03:23;;;;;;;;;;;10.80;99.90;;;;;;5051114;28;20388;-61
2023/01/06 06:05:49;;;;;;;;;;;10.80;99.90;;;;;;5051146;28;19913;-61
2023/01/06 06:08:14;;;;;;;;;;;10.90;99.90;;;;;;5050669;28;20333;-61
2023/01/06 06:10:40;;;;;;;;;;;10.80;99.90;;;;;;5051057;28;19909;-61
2023/01/06 06:13:06;;;;;;;;;;;10.80;99.90;;;;;;5051093;28;19920;-61
2023/01/06 06:15:31;;;;;;;;;;;10.80;99.90;;;;;;5051149;28;19916;-61
2023/01/06 06:17:57;;;;;;;;;;;10.80;99.90;;;;;;5050782;28;19908;-60
2023/01/06 06:20:22;;;;;;;;;;;10.80;99.90;;;;;;5050577;28;19909;-60
2023/01/06 06:22:48;;;;;;;;;;;10.80;99.90;;;;;;5050865;28;19915;-61
2023/01/06 06:25:13;;;;;;;;;;;10.80;99.90;;;;;;5050811;28;19955;-60
2023/01/06 06:27:39;;;;;;;;;;;10.80;99.90;;;;;;5050537;28;19908;-61
2023/01/06 06:30:05;;;;;;;;;;;10.80;99.90;;;;;;5050430;28;19909;-61
2023/01/06 06:32:31;;;;;;;;;;;10.70;99.90;;;;;;5050715;28;20499;-61
2023/01/06 06:34:57;;;;;;;;;;;10.70;99.90;;;;;;5050773;28;19943;-61
2023/01/06 06:37:23;;;;;;;;;;;10.70;99.90;;;;;;5050511;28;19954;-63
2023/01/06 06:39:48;;;;;;;;;;;10.70;99.90;;;;;;5053264;28;19963;-61
2023/01/06 06:42:14;;;;;;;;;;;10.70;99.90;;;;;;5054767;28;19909;-61
2023/01/06 06:44:39;;;;;;;;;;;10.70;99.90;;;;;;5054669;28;20362;-61
2023/01/06 06:47:05;;;;;;;;;;;10.70;99.90;;;;;;5054468;28;19915;-61
2023/01/06 06:49:30;;;;;;;;;;;10.70;99.90;;;;;;5054426;28;20165;-61
2023/01/06 06:51:56;;;;;;;;;;;10.70;99.90;;;;;;5054830;28;19935;-61
2023/01/06 06:54:22;;;;;;;;;;;10.70;99.90;;;;;;5054535;28;20007;-61
2023/01/06 06:56:47;;;;;;;;;;;10.70;99.90;;;;;;5054330;28;19908;-61
2023/01/06 06:59:13;;;;;;;;;;;10.70;99.90;;;;;;5054126;28;19920;-61
2023/01/06 07:01:38;;;;;;;;;;;10.70;99.90;;;;;;5054253;28;19908;-61
2023/01/06 07:04:04;;;;;;;;;;;10.70;99.90;;;;;;5054333;28;19909;-61
2023/01/06 07:06:30;;;;;;;;;;;10.70;99.90;;;;;;5053995;28;19970;-61
2023/01/06 07:08:56;;;;;;;;;;;10.70;99.90;;;;;;5052602;28;19913;-61
2023/01/06 07:11:21;;;;;;;;;;;10.60;99.90;;;;;;5054110;28;19982;-61
2023/01/06 07:13:47;;;;;;;;;;;10.60;99.90;;;;;;5054062;28;20439;-61
2023/01/06 07:16:13;;;;;;;;;;;10.60;99.90;;;;;;5054166;28;20058;-61
2023/01/06 07:18:39;;;;;;;;;;;10.70;99.90;;;;;;5053543;28;19904;-60
2023/01/06 07:21:05;;;;;;;;;;;10.60;99.90;;;;;;5053832;28;19936;-60
2023/01/06 07:23:31;;;;;;;;;;;10.70;99.90;;;;;;5053837;28;20146;-61
2023/01/06 07:25:57;;;;;;;;;;;10.70;99.90;;;;;;5054016;28;20431;-62
2023/01/06 07:28:24;;;;;;;;;;;10.70;99.90;;;;;;5053577;28;19956;-62
2023/01/06 07:30:50;;;;;;;;;;;10.70;99.90;;;;;;5053574;28;19978;-62
2023/01/06 07:33:16;;;;;;;;;;;10.70;99.90;;;;;;5053790;28;20365;-62
2023/01/06 07:35:41;;;;;;;;;;;10.60;99.90;;;;;;5052446;28;20301;-62
2023/01/06 07:38:08;;;;;;;;;;;10.60;99.90;;;;;;5053583;28;19919;-62
2023/01/06 07:40:33;;;;;;;;;;;10.60;99.90;;;;;;5053197;28;20361;-62
2023/01/06 07:43:06;;;;;;;;;;;10.70;99.90;;;;;;5053508;28;19920;-62
2023/01/06 07:45:31;;;;;;;;;;;10.70;99.90;;;;;;5053565;28;19920;-62
2023/01/06 07:47:57;;;;;;;;;;;10.70;99.90;;;;;;5053349;28;20264;-61
2023/01/06 07:50:22;;;;;;;;;;;10.70;99.90;;;;;;5052523;28;19928;-59
2023/01/06 07:52:48;;;;;;;;;;;10.70;99.90;;;;;;5053365;28;20410;-62
2023/01/06 07:55:14;;;;;;;;;;;10.70;99.90;;;;;;5053418;28;19916;-61
2023/01/06 07:57:39;;;;;;;;;;;10.70;99.90;;;;;;5053181;28;20385;-61
2023/01/06 08:00:05;;;;;;;;;;;10.70;99.90;;;;;;5052780;28;19919;-61
2023/01/06 08:02:37;;;;;;;;;;;10.70;99.90;;;;;;5053141;28;20315;-62
2023/01/06 08:05:03;;;;;;;;;;;10.70;99.90;;;;;;5052985;28;19909;-60
2023/01/06 08:07:28;;;;;;;;;;;10.70;99.90;;;;;;5052865;28;20001;-61
2023/01/06 08:09:54;;;;;;;;;;;10.80;99.90;;;;;;5052881;28;20284;-62
2023/01/06 08:12:19;;;;;;;;;;;10.80;99.90;;;;;;5052887;28;19913;-61
2023/01/06 08:14:45;;;;;;;;;;;10.80;99.90;;;;;;5053051;28;20423;-61
2023/01/06 08:17:11;;;;;;;;;;;10.80;99.90;;;;;;5052826;28;19924;-62
2023/01/06 08:19:36;;;;;;;;;;;10.80;99.90;;;;;;5052541;28;19915;-62
2023/01/06 08:22:02;;;;;;;;;;;10.80;99.90;;;;;;5052940;28;20344;-61
2023/01/06 08:24:29;;;;;;;;;;;10.80;99.90;;;;;;5052731;28;19962;-61
2023/01/06 08:26:56;;;;;;;;;;;10.80;99.90;;;;;;5052730;28;20323;-62
2023/01/06 08:29:22;;;;;;;;;;;10.80;99.90;;;;;;5052434;28;19998;-62
2023/01/06 08:31:48;;;;;;;;;;;10.80;99.90;;;;;;5052612;28;19963;-61
2023/01/06 08:34:13;;;;;;;;;;;10.80;99.90;;;;;;5052681;28;20329;-61
2023/01/06 08:36:40;;;;;;;;;;;10.90;99.90;;;;;;5052658;28;19909;-61
2023/01/06 08:39:06;;;;;;;;;;;10.80;99.90;;;;;;5052467;28;20324;-61
2023/01/06 08:41:32;;;;;;;;;;;10.90;99.90;;;;;;5052453;28;19915;-62
2023/01/06 08:43:57;;;;;;;;;;;10.90;99.90;;;;;;5052906;28;19916;-61
2023/01/06 08:46:25;;;;;;;;;;;10.90;99.90;;;;;;5052185;28;19970;-61
2023/01/06 08:48:51;;;;;;;;;;;11.00;99.90;;;;;;5051992;28;20313;-61
2023/01/06 08:51:19;;;;;;;;;;;11.00;99.90;;;;;;5052282;28;19909;-61
2023/01/06 08:53:46;;;;;;;;;;;10.90;99.90;;;;;;5052360;28;19995;-61
2023/01/06 08:56:16;;;;;;;;;;;10.90;99.90;;;;;;5052049;28;19963;-61
2023/01/06 08:58:41;;;;;;;;;;;10.90;99.90;;;;;;5050343;28;19916;-60
2023/01/06 09:01:13;;;;;;;;;;;11.00;99.90;;;;;;5063332;22;19958;-55
2023/01/06 09:03:39;;;;;;;;;;;11.00;99.90;;;;;;5052014;28;19916;-55
2023/01/06 09:06:05;;;;;;;;;;;11.00;99.90;;;;;;5051875;28;19909;-55
2023/01/06 09:08:30;;;;;;;;;;;10.90;99.90;;;;;;5051368;28;20407;-55
2023/01/06 09:10:56;;;;;;;;;;;10.90;99.90;;;;;;5051751;28;19916;-55
2023/01/06 09:13:21;;;;;;;;;;;11.00;99.90;;;;;;5051722;28;20300;-54
2023/01/06 09:15:47;;;;;;;;;;;11.00;99.90;;;;;;5051761;28;19995;-54
2023/01/06 09:18:13;;;;;;;;;;;11.00;99.90;;;;;;5051699;28;19915;-55
2023/01/06 09:20:38;;;;;;;;;;;11.00;99.90;;;;;;5051340;28;19908;-54
2023/01/06 09:23:04;;;;;;;;;;;10.90;99.90;;;;;;5051516;28;20392;-55
2023/01/06 09:25:30;;;;;;;;;;;10.80;99.90;;;;;;5051866;28;19909;-55
2023/01/06 09:27:56;;;;;;;;;;;10.80;99.90;;;;;;5051556;28;19908;-55
2023/01/06 09:30:24;;;;;;;;;;;10.80;99.90;;;;;;5051391;28;19924;-57
2023/01/06 09:32:49;;;;;;;;;;;10.80;99.90;;;;;;5051401;28;20011;-57
2023/01/06 09:35:15;;;;;;;;;;;10.70;99.90;;;;;;5051356;28;19952;-56
2023/01/06 09:37:40;;;;;;;;;;;10.70;99.90;;;;;;5051080;28;19909;-56
2023/01/06 09:40:06;;;;;;;;;;;10.70;99.90;;;;;;5051245;28;20246;-57
2023/01/06 09:42:52;;;;;;;;;;;10.60;99.90;;;;;;5051443;28;19912;-56
2023/01/06 09:45:18;;;;;;;;;;;10.50;99.90;;;;;;5051283;28;20020;-52
2023/01/06 09:47:50;;;;;;;;;;;10.50;99.90;;;;;;5050972;28;20004;-56
2023/01/06 09:50:30;;;;;;;;;;;10.50;99.90;;;;;;5050929;28;19908;-56
2023/01/06 09:53:02;;;;;;;;;;;10.50;99.90;;;;;;5050921;28;19990;-56
2023/01/06 09:55:33;;;;;;;;;;;10.50;99.90;;;;;;5051078;28;20011;-53
2023/01/06 09:58:01;;;;;;;;;;;10.50;99.90;;;;;;5050872;28;20292;-56
2023/01/06 10:00:29;;;;;;;;;;;10.50;99.90;;;;;;5050765;28;20427;-56
2023/01/06 10:02:56;;;;;;;;;;;10.40;99.90;;;;;;5051204;28;19909;-56
2023/01/06 10:05:41;;;;;;;;;;;10.40;99.90;;;;;;5051002;28;20353;-56
2023/01/06 10:08:18;;;;;;;;;;;10.40;99.90;;;;;;5050759;28;20285;-56
2023/01/06 10:10:46;;;;;;;;;;;10.40;99.90;;;;;;5050474;28;19915;-56
2023/01/06 10:13:18;;;;;;;;;;;10.40;99.90;;;;;;5050423;28;19913;-57
2023/01/06 10:15:50;;;;;;;;;;;10.40;99.90;;;;;;5051007;28;20023;-55
2023/01/06 10:18:22;;;;;;;;;;;10.40;99.90;;;;;;5050704;28;20332;-53
2023/01/06 10:20:48;;;;;;;;;;;10.40;99.90;;;;;;5050712;28;19915;-56
2023/01/06 10:23:17;;;;;;;;;;;10.40;99.90;;;;;;5050812;28;19909;-56
2023/01/06 10:26:02;;;;;;;;;;;10.40;99.90;;;;;;5050996;28;19978;-56
2023/01/06 10:28:37;;;;;;;;;;;10.40;99.90;;;;;;5036380;28;19921;-56
2023/01/06 10:31:05;;;;;;;;;;;10.40;99.90;;;;;;5050613;28;19916;-53
2023/01/06 10:33:33;;;;;;;;;;;10.50;99.90;;;;;;5050651;28;19958;-55
2023/01/06 10:35:59;;;;;;;;;;;10.50;99.90;;;;;;5050611;28;20369;-54
2023/01/06 10:38:28;;;;;;;;;;;10.60;99.90;;;;;;5050455;28;19913;-55
2023/01/06 10:40:59;;;;;;;;;;;10.60;99.90;;;;;;5050297;28;19908;-54
2023/01/06 10:43:25;;;;;;;;;;;10.70;99.90;;;;;;5050732;28;19919;-56
2023/01/06 10:45:52;;;;;;;;;;;10.80;99.90;;;;;;5050669;28;20319;-55
2023/01/06 10:48:19;;;;;;;;;;;10.90;99.90;;;;;;5050266;28;20300;-55
2023/01/06 10:50:45;;;;;;;;;;;11.10;99.90;;;;;;5050180;28;19909;-56
2023/01/06 10:53:12;;;;;;;;;;;11.20;99.90;;;;;;5050383;28;19957;-56
2023/01/06 10:55:52;;;;;;;;;;;11.20;99.90;;;;;;5050518;28;19913;-55
2023/01/06 10:58:24;;;;;;;;;;;11.20;99.90;;;;;;5050241;28;19912;-55
2023/01/06 11:00:57;;;;;;;;;;;11.30;99.90;;;;;;5049847;28;19963;-55
2023/01/06 11:03:22;;;;;;;;;;;11.40;99.90;;;;;;5050628;28;20016;-56
2023/01/06 11:05:57;;;;;;;;;;;11.50;99.90;;;;;;5050496;28;20060;-55
2023/01/06 11:08:23;;;;;;;;;;;11.50;99.90;;;;;;5050264;28;20344;-56
2023/01/06 11:10:48;;;;;;;;;;;11.50;99.90;;;;;;5050091;28;19951;-55
2023/01/06 11:13:23;;;;;;;;;;;11.60;99.90;;;;;;5050152;28;19912;-56
2023/01/06 11:15:49;;;;;;;;;;;11.70;99.90;;;;;;5050289;28;20426;-55
2023/01/06 11:18:20;;;;;;;;;;;11.80;99.90;;;;;;5050105;28;19912;-56
2023/01/06 11:20:59;;;;;;;;;;;11.90;99.90;;;;;;5050166;28;19908;-56
2023/01/06 11:23:25;;;;;;;;;;;12.10;99.90;;;;;;5050359;28;19913;-55
2023/01/06 11:26:02;;;;;;;;;;;12.20;99.90;;;;;;5052896;28;19908;-56
2023/01/06 11:28:29;;;;;;;;;;;12.10;99.90;;;;;;5053629;28;19919;-56
2023/01/06 11:31:05;;;;;;;;;;;12.10;99.90;;;;;;5053723;28;19909;-55
2023/01/06 11:33:34;;;;;;;;;;;12.10;99.90;;;;;;5053567;28;19920;-55
2023/01/06 11:36:05;;;;;;;;;;;12.10;99.90;;;;;;5053746;28;19913;-56
2023/01/06 11:38:38;;;;;;;;;;;12.10;99.90;;;;;;5053267;28;19916;-56
2023/01/06 11:41:07;;;;;;;;;;;12.10;99.90;;;;;;5053589;28;19954;-56
2023/01/06 11:43:32;;;;;;;;;;;12.00;99.90;;;;;;5053736;28;19905;-57
2023/01/06 11:45:59;;;;;;;;;;;12.00;99.90;;;;;;5053586;28;19909;-54
2023/01/06 11:48:45;;;;;;;;;;;12.10;99.90;;;;;;5053203;28;19912;-55
2023/01/06 11:51:10;;;;;;;;;;;12.10;99.90;;;;;;5052599;28;20292;-56
2023/01/06 11:53:37;;;;;;;;;;;12.30;99.90;;;;;;5053385;28;19913;-57
2023/01/06 11:56:21;;;;;;;;;;;12.50;99.90;;;;;;5053268;28;19912;-55
2023/01/06 11:59:03;;;;;;;;;;;12.60;99.90;;;;;;5053434;28;20292;-58
2023/01/06 12:01:33;;;;;;;;;;;12.90;99.90;;;;;;5052985;28;20376;-57
2023/01/06 12:04:04;;;;;;;;;;;13.10;99.90;;;;;;5053142;28;19916;-55
2023/01/06 12:06:34;;;;;;;;;;;13.60;99.90;;;;;;5052998;28;19963;-56
2023/01/06 12:09:02;;;;;;;;;;;13.70;99.90;;;;;;5052939;28;19962;-54
2023/01/06 12:11:27;;;;;;;;;;;13.60;99.90;;;;;;5053060;28;19919;-54
2023/01/06 12:13:53;;;;;;;;;;;13.30;99.90;;;;;;5052906;28;19912;-55
2023/01/06 12:16:22;;;;;;;;;;;13.10;99.90;;;;;;5052889;28;19915;-57
2023/01/06 12:18:49;;;;;;;;;;;12.90;99.90;;;;;;5052804;28;20361;-55
2023/01/06 12:21:19;;;;;;;;;;;12.80;99.90;;;;;;5052822;28;20001;-56
2023/01/06 12:23:45;;;;;;;;;;;12.70;99.90;;;;;;5052947;28;20358;-57
2023/01/06 12:26:16;;;;;;;;;;;12.80;99.90;;;;;;5052733;28;19966;-56
2023/01/06 12:28:43;;;;;;;;;;;13.10;99.90;;;;;;5052689;28;19931;-56
2023/01/06 12:31:14;;;;;;;;;;;13.50;99.90;;;;;;5052668;28;20362;-55
2023/01/06 12:33:58;;;;;;;;;;;14.10;99.90;;;;;;5052612;28;19919;-56
2023/01/06 12:36:46;;;;;;;;;;;14.40;99.90;;;;;;5052142;28;19944;-56
2023/01/06 12:39:17;;;;;;;;;;;14.80;99.90;;;;;;5052495;28;20023;-56
2023/01/06 12:41:43;;;;;;;;;;;15.10;99.90;;;;;;5052755;28;19908;-56
2023/01/06 12:44:08;;;;;;;;;;;15.10;99.90;;;;;;5052537;28;19908;-56
2023/01/06 12:46:43;;;;;;;;;;;14.90;99.90;;;;;;5052224;28;19912;-56
2023/01/06 12:49:17;;;;;;;;;;;14.60;99.90;;;;;;5051991;28;19916;-54
2023/01/06 12:51:50;;;;;;;;;;;14.10;99.90;;;;;;5052250;28;20003;-55
2023/01/06 12:54:20;;;;;;;;;;;13.80;99.90;;;;;;5052198;28;19919;-55
2023/01/06 12:57:04;;;;;;;;;;;13.50;99.90;;;;;;5052281;28;20368;-54
2023/01/06 12:59:48;;;;;;;;;;;13.30;99.90;;;;;;5051676;28;19915;-55
2023/01/06 13:02:20;;;;;;;;;;;13.20;99.90;;;;;;5052167;28;19966;-55
2023/01/06 13:05:05;;;;;;;;;;;13.10;99.90;;;;;;5052121;28;19935;-55
2023/01/06 13:07:50;;;;;;;;;;;13.30;99.90;;;;;;5051864;28;19909;-56
2023/01/06 13:10:51;;;;;;;;;;;13.70;99.90;;;;;;5050391;28;20299;-53
2023/01/06 13:13:30;;;;;;;;;;;13.90;99.90;;;;;;4970912;28;19925;-55
2023/01/06 13:15:59;;;;;;;;;;;13.90;99.90;;;;;;5042763;28;19963;-54
2023/01/06 13:18:24;;;;;;;;;;;13.80;99.90;;;;;;5051563;28;20296;-55
2023/01/06 13:20:54;;;;;;;;;;;13.70;99.90;;;;;;5051373;28;19909;-55
2023/01/06 13:23:35;;;;;;;;;;;13.50;99.90;;;;;;5051824;28;20365;-56
2023/01/06 13:26:00;;;;;;;;;;;13.30;99.90;;;;;;5051856;28;19935;-54
2023/01/06 13:28:32;;;;;;;;;;;13.20;99.90;;;;;;5051514;28;19908;-55
2023/01/06 13:31:16;;;;;;;;;;;13.10;99.90;;;;;;5050241;28;19917;-56
2023/01/06 13:33:57;;;;;;;;;;;13.00;99.90;;;;;;5051781;28;19963;-55
2023/01/06 13:36:38;;;;;;;;;;;12.90;99.90;;;;;;5051871;28;20328;-56
2023/01/06 13:39:11;;;;;;;;;;;12.80;99.90;;;;;;5051432;28;20376;-55
2023/01/06 13:41:38;;;;;;;;;;;12.70;99.90;;;;;;5051676;28;20385;-57
2023/01/06 13:44:06;;;;;;;;;;;12.60;99.90;;;;;;5051804;28;19919;-56
2023/01/06 13:46:32;;;;;;;;;;;12.60;99.90;;;;;;5051433;28;19916;-59
2023/01/06 13:49:00;;;;;;;;;;;12.50;99.90;;;;;;5050952;28;19909;-53
2023/01/06 13:51:28;;;;;;;;;;;12.40;99.90;;;;;;5051431;28;19915;-56
2023/01/06 13:53:55;;;;;;;;;;;12.40;99.90;;;;;;5051504;28;19967;-56
2023/01/06 13:56:20;;;;;;;;;;;12.30;99.90;;;;;;5051337;28;20008;-53
2023/01/06 13:58:48;;;;;;;;;;;12.30;99.90;;;;;;5051343;28;19995;-55
2023/01/06 14:01:16;;;;;;;;;;;12.30;99.90;;;;;;5051321;28;19912;-55
2023/01/06 14:03:42;;;;;;;;;;;12.20;99.90;;;;;;5051399;28;19915;-57
2023/01/06 14:06:12;;;;;;;;;;;12.10;99.90;;;;;;5051347;28;19909;-55
2023/01/06 14:08:46;;;;;;;;;;;12.10;99.90;;;;;;5051057;28;20095;-54
2023/01/06 14:11:23;;;;;;;;;;;12.00;99.90;;;;;;5051359;28;19916;-56
2023/01/06 14:13:51;;;;;;;;;;;11.90;99.90;;;;;;5051279;28;20022;-56
2023/01/06 14:16:17;;;;;;;;;;;11.80;99.90;;;;;;5051211;28;19996;-56
2023/01/06 14:18:45;;;;;;;;;;;11.90;99.90;;;;;;5050833;28;20000;-56
2023/01/06 14:21:11;;;;;;;;;;;11.80;99.90;;;;;;5051128;28;19908;-57
2023/01/06 14:23:37;;;;;;;;;;;11.70;99.90;;;;;;5051406;28;20262;-57
2023/01/06 14:26:03;;;;;;;;;;;11.60;99.90;;;;;;5051460;28;20211;-56
2023/01/06 14:28:32;;;;;;;;;;;11.50;99.90;;;;;;5051032;28;20336;-56
2023/01/06 14:31:17;;;;;;;;;;;11.50;99.90;;;;;;5051092;28;19912;-53